Time;durP1;ratioP1;P1;durP2;ratioP2;P2;SDS_P1;SDS_P2;PMS_P1;PMS_P2;Temp;Humidity;BMP_temperature;BMP_pressure;BME280_temperature;BME280_humidity;BME280_pressure;Samples;Min_cycle;Max_cycle;Signal;HPM_P1;HPM_P2
2022/08/10 00:00:57;;;;;;;11.10;2.22;;;;;;;;;;5054470;28;20044;-69
2022/08/10 00:03:23;;;;;;;10.82;2.22;;;;;;;;;;5059368;28;20115;-68
2022/08/10 00:05:52;;;;;;;10.38;2.47;;;;;;;;;;5052321;28;20041;-69
2022/08/10 00:08:18;;;;;;;4.65;2.38;;;;;;;;;;5056143;28;20154;-69
2022/08/10 00:10:44;;;;;;;10.57;2.40;;;;;;;;;;5048807;28;20021;-69
2022/08/10 00:13:10;;;;;;;10.68;1.88;;;;;;;;;;5040590;28;20071;-68
2022/08/10 00:15:36;;;;;;;7.40;2.03;;;;;;;;;;5047419;28;20041;-68
2022/08/10 00:18:03;;;;;;;10.98;2.40;;;;;;;;;;5055046;28;20047;-68
2022/08/10 00:20:29;;;;;;;5.07;1.80;;;;;;;;;;5046262;28;20036;-68
2022/08/10 00:22:55;;;;;;;9.18;2.65;;;;;;;;;;5050079;28;20066;-66
2022/08/10 00:25:21;;;;;;;9.52;2.00;;;;;;;;;;5057740;28;20040;-69
2022/08/10 00:27:47;;;;;;;7.15;1.95;;;;;;;;;;5054323;28;20040;-69
2022/08/10 00:30:13;;;;;;;11.52;2.35;;;;;;;;;;5054085;28;20021;-68
2022/08/10 00:32:39;;;;;;;10.35;2.20;;;;;;;;;;5041744;28;20017;-68
2022/08/10 00:35:06;;;;;;;6.13;2.38;;;;;;;;;;5046200;28;20026;-69
2022/08/10 00:37:32;;;;;;;7.18;1.48;;;;;;;;;;5049235;28;20420;-68
2022/08/10 00:39:58;;;;;;;16.88;3.97;;;;;;;;;;5046079;28;20481;-67
2022/08/10 00:42:24;;;;;;;9.63;2.25;;;;;;;;;;5042743;28;20032;-67
2022/08/10 00:44:52;;;;;;;9.52;3.20;;;;;;;;;;5054382;28;20021;-68
2022/08/10 00:47:18;;;;;;;13.32;2.58;;;;;;;;;;5056708;28;20060;-68
2022/08/10 00:49:44;;;;;;;11.52;2.30;;;;;;;;;;5063115;28;20086;-67
2022/08/10 00:52:11;;;;;;;9.82;2.17;;;;;;;;;;5043023;28;20033;-69
2022/08/10 00:54:38;;;;;;;12.25;2.00;;;;;;;;;;5051160;28;20033;-69
2022/08/10 00:57:04;;;;;;;12.65;1.80;;;;;;;;;;5051784;28;20021;-70
2022/08/10 00:59:31;;;;;;;14.38;2.30;;;;;;;;;;5049126;28;20163;-68
2022/08/10 01:01:57;;;;;;;12.82;2.38;;;;;;;;;;5052324;28;20879;-68
2022/08/10 01:04:23;;;;;;;12.02;2.67;;;;;;;;;;5050386;28;20035;-68
2022/08/10 01:06:59;;;;;;;10.00;2.13;;;;;;;;;;5049062;28;20075;-68
2022/08/10 01:09:34;;;;;;;15.30;4.28;;;;;;;;;;5045253;28;20020;-67
2022/08/10 01:12:03;;;;;;;10.05;1.85;;;;;;;;;;5044428;28;20075;-66
2022/08/10 01:14:35;;;;;;;10.32;2.22;;;;;;;;;;5048275;28;20029;-69
2022/08/10 01:17:07;;;;;;;15.10;1.92;;;;;;;;;;5050570;28;20028;-70
2022/08/10 01:19:53;;;;;;;7.67;1.80;;;;;;;;;;5049271;28;20025;-69
2022/08/10 01:22:22;;;;;;;11.18;2.13;;;;;;;;;;5050827;28;20295;-66
2022/08/10 01:25:01;;;;;;;10.75;1.98;;;;;;;;;;5042264;28;20087;-67
2022/08/10 01:27:27;;;;;;;7.65;1.92;;;;;;;;;;5052893;28;20025;-68
2022/08/10 01:29:53;;;;;;;9.13;1.77;;;;;;;;;;5046966;28;20038;-67
2022/08/10 01:32:25;;;;;;;8.13;2.08;;;;;;;;;;5063431;28;20086;-68
2022/08/10 01:34:59;;;;;;;9.05;1.88;;;;;;;;;;5043771;28;20028;-68
2022/08/10 01:37:29;;;;;;;7.57;1.92;;;;;;;;;;5046861;28;20021;-67
2022/08/10 01:39:57;;;;;;;8.57;2.28;;;;;;;;;;5039429;28;20622;-69
2022/08/10 01:42:24;;;;;;;7.32;1.65;;;;;;;;;;5049330;28;20071;-69
2022/08/10 01:44:58;;;;;;;7.35;1.80;;;;;;;;;;5049448;28;20028;-68
2022/08/10 01:50:22;;;;;;;10.27;2.15;;;;;;;;;;5050349;28;20021;-67
2022/08/10 01:52:50;;;;;;;7.45;2.10;;;;;;;;;;5066059;28;20025;-67
2022/08/10 01:55:17;;;;;;;8.18;1.95;;;;;;;;;;5038959;28;20033;-67
2022/08/10 01:57:45;;;;;;;6.93;1.90;;;;;;;;;;5044257;28;20148;-67
2022/08/10 02:00:12;;;;;;;8.25;1.90;;;;;;;;;;5048588;28;20020;-67
2022/08/10 02:02:40;;;;;;;15.00;1.90;;;;;;;;;;5060681;28;20450;-68
2022/08/10 02:05:07;;;;;;;7.57;1.88;;;;;;;;;;5047242;28;20386;-68
2022/08/10 02:07:34;;;;;;;7.82;2.38;;;;;;;;;;5048486;28;20029;-68
2022/08/10 02:10:06;;;;;;;8.95;1.77;;;;;;;;;;5044093;28;20048;-68
2022/08/10 02:12:33;;;;;;;4.63;1.67;;;;;;;;;;5047405;28;20111;-68
2022/08/10 02:15:01;;;;;;;7.47;1.90;;;;;;;;;;5052078;28;20361;-68
2022/08/10 02:17:33;;;;;;;9.68;1.90;;;;;;;;;;5046828;28;20055;-68
2022/08/10 02:20:02;;;;;;;8.43;1.80;;;;;;;;;;5050010;28;20032;-68
2022/08/10 02:22:28;;;;;;;8.52;1.77;;;;;;;;;;5046171;28;20552;-68
2022/08/10 02:24:55;;;;;;;13.13;2.42;;;;;;;;;;5048423;28;20037;-68
2022/08/10 02:27:23;;;;;;;6.65;1.30;;;;;;;;;;5040176;28;20024;-68
2022/08/10 02:29:50;;;;;;;8.48;2.00;;;;;;;;;;5047065;28;20036;-68
2022/08/10 02:32:18;;;;;;;5.68;1.92;;;;;;;;;;5046587;28;20056;-68
2022/08/10 02:34:44;;;;;;;6.50;2.38;;;;;;;;;;5056527;28;20065;-67
2022/08/10 02:37:12;;;;;;;6.35;2.33;;;;;;;;;;5048694;28;20025;-67
2022/08/10 02:39:38;;;;;;;12.32;2.15;;;;;;;;;;5042021;28;20053;-68
2022/08/10 02:42:07;;;;;;;5.43;2.20;;;;;;;;;;5047231;28;20029;-67
2022/08/10 02:44:46;;;;;;;8.82;2.05;;;;;;;;;;5047850;28;20061;-67
2022/08/10 02:47:16;;;;;;;4.80;1.77;;;;;;;;;;5049538;28;20040;-67
2022/08/10 02:49:43;;;;;;;5.65;1.80;;;;;;;;;;5058294;28;20029;-67
2022/08/10 02:52:31;;;;;;;6.18;1.70;;;;;;;;;;5061079;28;20389;-68
2022/08/10 02:55:06;;;;;;;5.50;1.60;;;;;;;;;;5050099;28;20116;-68
2022/08/10 02:57:35;;;;;;;8.98;2.08;;;;;;;;;;5047803;28;20082;-68
2022/08/10 03:00:06;;;;;;;7.03;3.10;;;;;;;;;;5049724;28;20039;-68
2022/08/10 03:02:34;;;;;;;8.13;2.65;;;;;;;;;;5044521;28;20040;-67
2022/08/10 03:05:02;;;;;;;12.75;2.33;;;;;;;;;;5046179;28;20029;-69
2022/08/10 03:07:32;;;;;;;12.05;2.45;;;;;;;;;;5049288;28;20083;-70
2022/08/10 03:09:59;;;;;;;10.07;2.15;;;;;;;;;;5050837;28;20033;-67
2022/08/10 03:12:26;;;;;;;12.05;2.47;;;;;;;;;;5046583;28;20029;-68
2022/08/10 03:14:53;;;;;;;5.43;1.95;;;;;;;;;;5059085;28;20532;-68
2022/08/10 03:17:20;;;;;;;6.75;2.25;;;;;;;;;;5062147;28;20059;-66
2022/08/10 03:19:46;;;;;;;10.00;2.05;;;;;;;;;;5045722;28;20029;-66
2022/08/10 03:22:13;;;;;;;11.00;2.33;;;;;;;;;;5056530;28;20021;-66
2022/08/10 03:24:40;;;;;;;8.43;2.03;;;;;;;;;;5048598;28;20749;-66
2022/08/10 03:27:07;;;;;;;6.95;2.17;;;;;;;;;;5050402;28;20094;-67
2022/08/10 03:29:33;;;;;;;4.90;1.80;;;;;;;;;;5050344;28;20045;-66
2022/08/10 03:32:00;;;;;;;7.43;1.67;;;;;;;;;;5055516;28;20033;-67
2022/08/10 03:34:26;;;;;;;7.90;2.10;;;;;;;;;;5050256;28;20056;-67
2022/08/10 03:36:52;;;;;;;5.32;1.67;;;;;;;;;;5059622;28;20066;-67
2022/08/10 03:39:18;;;;;;;6.78;2.20;;;;;;;;;;5052726;28;20021;-67
2022/08/10 03:41:49;;;;;;;3.63;1.80;;;;;;;;;;5049536;28;20401;-67
2022/08/10 03:44:19;;;;;;;6.07;1.92;;;;;;;;;;5055655;28;20108;-68
2022/08/10 03:46:45;;;;;;;7.72;1.77;;;;;;;;;;5061069;28;20037;-67
2022/08/10 03:49:11;;;;;;;11.75;2.15;;;;;;;;;;5059728;28;20130;-67
2022/08/10 03:51:38;;;;;;;8.38;2.25;;;;;;;;;;5056153;28;20476;-67
2022/08/10 03:54:04;;;;;;;9.25;1.77;;;;;;;;;;5049437;28;20098;-67
2022/08/10 03:56:31;;;;;;;7.68;2.00;;;;;;;;;;5057314;28;20021;-68
2022/08/10 03:58:57;;;;;;;6.90;1.88;;;;;;;;;;5048815;28;20044;-67
2022/08/10 04:01:24;;;;;;;7.40;1.88;;;;;;;;;;5046950;28;20424;-67
2022/08/10 04:03:50;;;;;;;12.15;2.83;;;;;;;;;;5051590;28;20430;-67
2022/08/10 04:06:16;;;;;;;6.80;2.05;;;;;;;;;;5056175;28;20143;-67
2022/08/10 04:08:42;;;;;;;6.93;2.58;;;;;;;;;;5053126;28;20017;-67
2022/08/10 04:11:09;;;;;;;10.32;2.60;;;;;;;;;;5047002;28;20021;-67
2022/08/10 04:13:35;;;;;;;7.63;2.63;;;;;;;;;;5058032;28;20476;-67
2022/08/10 04:16:01;;;;;;;9.30;2.35;;;;;;;;;;5058149;28;20033;-67
2022/08/10 04:18:27;;;;;;;8.20;2.55;;;;;;;;;;5055460;28;20036;-67
2022/08/10 04:21:00;;;;;;;7.07;2.30;;;;;;;;;;5052000;28;20053;-67
2022/08/10 04:23:26;;;;;;;;;;;;;;;;;;5055500;28;20032;-67
2022/08/10 04:25:52;;;;;;;14.88;2.63;;;;;;;;;;5059130;28;20389;-67
2022/08/10 04:28:19;;;;;;;13.10;2.67;;;;;;;;;;5053007;28;20028;-67
2022/08/10 04:30:46;;;;;;;6.30;2.40;;;;;;;;;;5054349;28;20074;-67
2022/08/10 04:33:14;;;;;;;12.07;3.50;;;;;;;;;;5046745;28;20027;-67
2022/08/10 04:35:41;;;;;;;8.95;2.85;;;;;;;;;;5063623;28;20155;-67
2022/08/10 04:38:08;;;;;;;19.77;4.25;;;;;;;;;;5053246;28;20515;-67
2022/08/10 04:40:34;;;;;;;14.25;3.72;;;;;;;;;;5053661;28;20465;-68
2022/08/10 04:43:02;;;;;;;11.10;3.80;;;;;;;;;;5049150;28;20037;-68
2022/08/10 04:45:28;;;;;;;16.42;4.30;;;;;;;;;;5038441;28;20115;-67
2022/08/10 04:47:54;;;;;;;19.35;5.35;;;;;;;;;;5043931;28;20477;-67
2022/08/10 04:50:20;;;;;;;25.35;5.55;;;;;;;;;;5042016;28;20025;-68
2022/08/10 04:52:50;;;;;;;27.27;7.07;;;;;;;;;;5049422;28;20114;-67
2022/08/10 04:55:16;;;;;;;21.58;7.07;;;;;;;;;;5048892;28;20037;-67
2022/08/10 04:57:43;;;;;;;24.80;7.55;;;;;;;;;;5051803;28;20025;-68
2022/08/10 05:00:09;;;;;;;32.58;7.90;;;;;;;;;;5044364;28;20021;-68
2022/08/10 05:02:35;;;;;;;23.55;7.47;;;;;;;;;;5046676;28;20111;-68
2022/08/10 05:05:01;;;;;;;30.13;9.98;;;;;;;;;;5044620;28;20048;-68
2022/08/10 05:07:27;;;;;;;32.50;9.75;;;;;;;;;;5048900;28;20508;-68
2022/08/10 05:09:54;;;;;;;30.20;9.65;;;;;;;;;;5047664;28;20501;-67
2022/08/10 05:12:20;;;;;;;38.00;10.65;;;;;;;;;;5052901;28;20115;-68
2022/08/10 05:14:46;;;;;;;40.63;9.57;;;;;;;;;;5047451;28;20021;-68
2022/08/10 05:17:12;;;;;;;33.08;9.10;;;;;;;;;;5044759;28;20123;-68
2022/08/10 05:19:38;;;;;;;32.30;10.02;;;;;;;;;;5043307;28;20029;-69
2022/08/10 05:22:05;;;;;;;31.42;10.38;;;;;;;;;;5048356;28;20068;-68
2022/08/10 05:24:31;;;;;;;43.63;10.68;;;;;;;;;;5045086;28;20521;-67
2022/08/10 05:26:57;;;;;;;40.00;11.85;;;;;;;;;;5050847;28;20030;-67
2022/08/10 05:29:23;;;;;;;26.30;10.02;;;;;;;;;;5051509;28;20032;-67
2022/08/10 05:31:50;;;;;;;36.90;10.55;;;;;;;;;;5045814;28;20035;-67
2022/08/10 05:34:16;;;;;;;37.88;10.98;;;;;;;;;;5042895;28;20072;-67
2022/08/10 05:36:42;;;;;;;31.00;12.57;;;;;;;;;;5042405;28;20055;-67
2022/08/10 05:39:09;;;;;;;32.28;12.80;;;;;;;;;;5047866;28;20024;-67
2022/08/10 05:41:36;;;;;;;48.15;12.02;;;;;;;;;;5046860;28;20102;-67
2022/08/10 05:44:02;;;;;;;43.97;12.52;;;;;;;;;;5049282;28;20037;-68
2022/08/10 05:46:29;;;;;;;34.58;11.32;;;;;;;;;;5047429;28;20060;-67
2022/08/10 05:48:55;;;;;;;29.52;11.00;;;;;;;;;;5041835;28;20025;-68
2022/08/10 05:51:21;;;;;;;31.50;12.00;;;;;;;;;;5037621;28;20021;-69
2022/08/10 05:53:48;;;;;;;47.78;13.40;;;;;;;;;;5043659;28;20102;-68
2022/08/10 05:56:14;;;;;;;32.08;11.65;;;;;;;;;;5041173;28;20056;-68
2022/08/10 05:58:40;;;;;;;38.42;14.57;;;;;;;;;;5039109;28;20041;-69
2022/08/10 06:01:11;;;;;;;35.10;14.65;;;;;;;;;;5038385;28;20039;-69
2022/08/10 06:03:39;;;;;;;29.88;14.73;;;;;;;;;;5064026;28;20041;-68
2022/08/10 06:06:07;;;;;;;35.33;14.27;;;;;;;;;;5040090;28;20493;-68
2022/08/10 06:08:35;;;;;;;39.20;14.35;;;;;;;;;;5036976;28;20029;-67
2022/08/10 06:11:03;;;;;;;40.97;15.48;;;;;;;;;;5038088;28;20033;-68
2022/08/10 06:16:16;;;;;;;41.58;15.18;;;;;;;;;;5037722;28;20037;-68
2022/08/10 06:18:43;;;;;;;43.67;15.38;;;;;;;;;;5039522;28;20036;-68
2022/08/10 06:21:09;;;;;;;38.47;16.73;;;;;;;;;;5041091;28;20484;-68
2022/08/10 06:23:36;;;;;;;32.65;13.90;;;;;;;;;;5035694;28;20040;-68
2022/08/10 06:26:03;;;;;;;38.83;15.13;;;;;;;;;;5044242;28;20032;-69
2022/08/10 06:28:30;;;;;;;41.17;14.05;;;;;;;;;;5043414;28;20033;-67
2022/08/10 06:30:57;;;;;;;35.85;13.52;;;;;;;;;;5035840;28;20043;-67
2022/08/10 06:33:23;;;;;;;35.10;13.52;;;;;;;;;;5041076;28;20052;-68
2022/08/10 06:35:51;;;;;;;36.58;14.10;;;;;;;;;;5041245;28;20064;-68
2022/08/10 06:38:18;;;;;;;40.05;13.75;;;;;;;;;;5038281;28;20022;-68
2022/08/10 06:40:46;;;;;;;42.38;13.95;;;;;;;;;;5043829;28;20068;-68
2022/08/10 06:43:15;;;;;;;33.03;13.48;;;;;;;;;;5034287;28;20405;-68
2022/08/10 06:45:49;;;;;;;31.30;13.25;;;;;;;;;;5035457;28;20127;-68
2022/08/10 06:48:54;;;;;;;34.88;14.40;;;;;;;;;;5032962;28;20505;-68
2022/08/10 06:51:22;;;;;;;40.13;12.93;;;;;;;;;;4964886;28;20039;-68
2022/08/10 06:53:50;;;;;;;30.85;13.48;;;;;;;;;;4951222;28;20440;-69
2022/08/10 06:56:19;;;;;;;36.50;13.00;;;;;;;;;;4967396;28;20109;-69
2022/08/10 06:58:46;;;;;;;32.45;12.68;;;;;;;;;;4969556;28;20035;-68
2022/08/10 07:01:14;;;;;;;34.10;11.93;;;;;;;;;;4946084;28;20174;-69
2022/08/10 07:03:44;;;;;;;35.65;13.25;;;;;;;;;;4966611;28;20043;-69
2022/08/10 07:06:14;;;;;;;33.17;11.63;;;;;;;;;;4965704;28;20042;-68
2022/08/10 07:08:40;;;;;;;32.08;13.90;;;;;;;;;;4952935;28;20031;-68
2022/08/10 07:11:07;;;;;;;38.72;13.00;;;;;;;;;;4964950;28;20027;-69
2022/08/10 07:13:35;;;;;;;30.67;12.60;;;;;;;;;;4967362;28;20508;-69
2022/08/10 07:16:02;;;;;;;39.35;12.70;;;;;;;;;;4965414;28;20490;-69
2022/08/10 07:18:28;;;;;;;35.55;11.25;;;;;;;;;;4964414;28;20046;-69
2022/08/10 07:20:55;;;;;;;35.15;12.20;;;;;;;;;;4964834;28;20075;-68
2022/08/10 07:23:22;;;;;;;33.08;11.57;;;;;;;;;;5038106;28;20037;-69
2022/08/10 07:25:49;;;;;;;38.85;14.20;;;;;;;;;;5040452;28;20478;-69
2022/08/10 07:28:15;;;;;;;39.28;12.18;;;;;;;;;;5040400;28;20056;-68
2022/08/10 07:30:43;;;;;;;28.33;11.38;;;;;;;;;;5040708;28;20024;-69
2022/08/10 07:33:10;;;;;;;27.75;12.65;;;;;;;;;;5038687;28;20389;-69
2022/08/10 07:35:36;;;;;;;34.63;12.70;;;;;;;;;;5038829;28;20025;-68
2022/08/10 07:38:04;;;;;;;34.75;11.73;;;;;;;;;;5035568;28;20033;-69
2022/08/10 07:40:30;;;;;;;33.22;11.18;;;;;;;;;;5040481;28;20029;-69
2022/08/10 07:42:58;;;;;;;36.92;12.98;;;;;;;;;;5039897;28;20041;-69
2022/08/10 07:45:27;;;;;;;32.05;11.32;;;;;;;;;;5038961;28;20030;-69
2022/08/10 07:48:06;;;;;;;28.10;11.80;;;;;;;;;;5034622;28;20105;-68
2022/08/10 07:50:33;;;;;;;24.48;12.27;;;;;;;;;;5033992;28;20021;-69
2022/08/10 07:53:02;;;;;;;34.00;10.55;;;;;;;;;;5036767;28;20039;-68
2022/08/10 07:55:28;;;;;;;31.85;11.48;;;;;;;;;;5039213;28;20036;-68
2022/08/10 07:57:56;;;;;;;20.50;10.02;;;;;;;;;;5039332;28;20668;-68
2022/08/10 08:00:22;;;;;;;23.60;10.27;;;;;;;;;;5040997;28;20033;-69
2022/08/10 08:02:52;;;;;;;27.85;11.27;;;;;;;;;;5042082;28;20078;-68
2022/08/10 08:05:20;;;;;;;26.70;10.55;;;;;;;;;;5037728;28;20068;-68
2022/08/10 08:07:46;;;;;;;26.90;10.98;;;;;;;;;;5038149;28;20021;-69
2022/08/10 08:10:15;;;;;;;28.65;10.13;;;;;;;;;;5039228;28;20033;-68
2022/08/10 08:12:42;;;;;;;21.92;8.85;;;;;;;;;;5036047;28;20044;-68
2022/08/10 08:15:09;;;;;;;29.67;10.90;;;;;;;;;;5038433;28;20025;-69
2022/08/10 08:17:36;;;;;;;28.08;10.32;;;;;;;;;;5045234;28;20029;-68
2022/08/10 08:20:02;;;;;;;27.70;9.35;;;;;;;;;;5042941;28;20044;-67
2022/08/10 08:22:29;;;;;;;26.10;9.50;;;;;;;;;;5040228;28;20033;-67
2022/08/10 08:24:56;;;;;;;22.88;8.45;;;;;;;;;;5042776;28;20041;-68
2022/08/10 08:27:23;;;;;;;24.45;9.20;;;;;;;;;;5039936;28;20025;-68
2022/08/10 08:29:50;;;;;;;26.42;8.63;;;;;;;;;;5040868;28;20037;-68
2022/08/10 08:32:27;;;;;;;24.20;8.20;;;;;;;;;;5043657;28;20049;-68
2022/08/10 08:34:55;;;;;;;22.90;7.53;;;;;;;;;;5040007;28;20026;-68
2022/08/10 08:37:23;;;;;;;25.70;7.25;;;;;;;;;;5040224;28;20059;-68
2022/08/10 08:39:49;;;;;;;21.70;8.52;;;;;;;;;;5042530;28;20769;-68
2022/08/10 08:42:22;;;;;;;27.52;9.60;;;;;;;;;;5043535;28;20029;-69
2022/08/10 08:44:48;;;;;;;19.73;7.95;;;;;;;;;;5045503;28;20119;-69
2022/08/10 08:47:14;;;;;;;17.45;7.55;;;;;;;;;;5046720;28;20048;-68
2022/08/10 08:50:12;;;;;;;21.00;7.63;;;;;;;;;;5048004;28;20372;-69
2022/08/10 08:52:38;;;;;;;19.40;7.38;;;;;;;;;;4999477;28;20037;-68
2022/08/10 08:55:23;;;;;;;33.67;7.50;;;;;;;;;;5042163;28;20067;-66
2022/08/10 08:58:08;;;;;;;26.40;6.88;;;;;;;;;;5042354;28;20051;-66
2022/08/10 09:00:34;;;;;;;18.80;5.72;;;;;;;;;;5049078;28;20477;-66
2022/08/10 09:03:16;;;;;;;21.65;7.28;;;;;;;;;;5042716;28;20048;-66
2022/08/10 09:06:03;;;;;;;20.60;5.93;;;;;;;;;;5041601;28;20111;-66
2022/08/10 09:08:57;;;;;;;21.83;6.85;;;;;;;;;;5037117;28;20138;-66
2022/08/10 09:11:30;;;;;;;16.63;6.05;;;;;;;;;;4985891;28;20086;-66
2022/08/10 09:14:08;;;;;;;18.70;6.32;;;;;;;;;;4994829;28;20096;-65
2022/08/10 09:16:42;;;;;;;19.40;6.43;;;;;;;;;;4996403;28;20218;-65
2022/08/10 09:19:16;;;;;;;21.48;6.28;;;;;;;;;;4989834;28;20089;-66
2022/08/10 09:21:43;;;;;;;;;;;;;;;;;;4971673;28;20605;-66
2022/08/10 09:24:15;;;;;;;24.70;5.63;;;;;;;;;;4988014;28;19941;-66
2022/08/10 09:26:48;;;;;;;24.25;5.68;;;;;;;;;;4980283;28;20034;-67
2022/08/10 09:29:18;;;;;;;18.40;6.68;;;;;;;;;;4988837;28;20043;-66
2022/08/10 09:31:46;;;;;;;17.98;5.47;;;;;;;;;;4988043;28;20110;-66
2022/08/10 09:34:21;;;;;;;16.40;5.72;;;;;;;;;;4986532;28;20034;-66
2022/08/10 09:36:59;;;;;;;18.35;4.55;;;;;;;;;;4988791;28;20038;-66
2022/08/10 09:39:30;;;;;;;20.63;4.90;;;;;;;;;;4986289;28;20038;-66
2022/08/10 09:42:15;;;;;;;17.90;5.07;;;;;;;;;;4987107;28;20533;-66
2022/08/10 09:44:54;;;;;;;17.42;4.95;;;;;;;;;;4989043;28;20177;-66
2022/08/10 09:47:33;;;;;;;15.73;4.32;;;;;;;;;;4995321;28;20036;-67
2022/08/10 09:50:05;;;;;;;17.77;5.03;;;;;;;;;;5039038;28;20037;-68
2022/08/10 09:53:01;;;;;;;15.63;4.65;;;;;;;;;;5038280;28;20026;-66
2022/08/10 09:55:27;;;;;;;15.63;4.63;;;;;;;;;;5022543;28;20045;-66
2022/08/10 09:58:00;;;;;;;21.52;5.65;;;;;;;;;;5038681;28;20543;-66
2022/08/10 10:00:40;;;;;;;15.57;5.45;;;;;;;;;;5043697;28;20516;-66
2022/08/10 10:03:06;;;;;;;21.48;4.55;;;;;;;;;;5036859;28;20040;-66
2022/08/10 10:05:33;;;;;;;21.40;4.97;;;;;;;;;;5042000;28;20053;-65
2022/08/10 10:08:11;;;;;;;9.77;4.25;;;;;;;;;;5043256;28;20021;-65
2022/08/10 10:10:45;;;;;;;20.95;5.43;;;;;;;;;;5042178;28;20029;-66
2022/08/10 10:13:26;;;;;;;23.60;5.40;;;;;;;;;;5042212;28;20029;-66
2022/08/10 10:15:59;;;;;;;18.00;5.20;;;;;;;;;;5038341;28;20029;-67
2022/08/10 10:18:29;;;;;;;18.08;5.97;;;;;;;;;;5040081;28;20057;-66
2022/08/10 10:21:01;;;;;;;11.73;5.00;;;;;;;;;;5049712;28;20052;-67
2022/08/10 10:23:42;;;;;;;16.45;4.32;;;;;;;;;;5048287;28;20534;-67
2022/08/10 10:26:08;;;;;;;19.17;5.55;;;;;;;;;;5048520;28;21349;-67
2022/08/10 10:28:40;;;;;;;16.67;4.78;;;;;;;;;;5049787;28;20021;-66
2022/08/10 10:31:23;;;;;;;10.18;4.00;;;;;;;;;;5043504;28;20029;-67
2022/08/10 10:33:50;;;;;;;22.35;4.97;;;;;;;;;;5046546;28;20033;-67
2022/08/10 10:36:16;;;;;;;13.48;4.85;;;;;;;;;;5051679;28;20104;-67
2022/08/10 10:38:43;;;;;;;13.43;4.20;;;;;;;;;;5047394;28;20043;-67
2022/08/10 10:41:15;;;;;;;12.38;5.03;;;;;;;;;;5047916;28;20024;-67
2022/08/10 10:43:44;;;;;;;14.90;4.28;;;;;;;;;;5048829;28;20040;-67
2022/08/10 10:46:19;;;;;;;25.77;9.05;;;;;;;;;;5050503;28;20033;-67
2022/08/10 10:48:45;;;;;;;21.63;6.72;;;;;;;;;;5050528;28;20508;-67
2022/08/10 10:51:25;;;;;;;17.58;5.03;;;;;;;;;;5034585;28;20030;-67
2022/08/10 10:53:51;;;;;;;17.80;4.15;;;;;;;;;;5048804;28;20024;-67
2022/08/10 10:56:20;;;;;;;12.05;4.30;;;;;;;;;;5039782;28;20098;-67
2022/08/10 10:58:55;;;;;;;15.00;4.85;;;;;;;;;;5050430;28;20013;-67
2022/08/10 11:01:21;;;;;;;13.70;4.50;;;;;;;;;;5044813;28;20040;-67
2022/08/10 11:04:06;;;;;;;11.65;3.90;;;;;;;;;;5054670;28;20108;-67
2022/08/10 11:06:41;;;;;;;15.80;4.15;;;;;;;;;;5035128;28;20136;-67
2022/08/10 11:09:09;;;;;;;11.35;4.13;;;;;;;;;;5034570;28;20369;-67
2022/08/10 11:11:36;;;;;;;14.05;3.75;;;;;;;;;;5041784;28;20921;-67
2022/08/10 11:14:08;;;;;;;17.83;4.63;;;;;;;;;;5043746;28;20033;-67
2022/08/10 11:16:53;;;;;;;12.20;4.43;;;;;;;;;;5042473;28;20056;-67
2022/08/10 11:19:22;;;;;;;10.38;3.55;;;;;;;;;;5048246;28;20028;-67
2022/08/10 11:22:00;;;;;;;23.52;4.03;;;;;;;;;;5044414;28;20048;-67
2022/08/10 11:24:45;;;;;;;12.27;3.47;;;;;;;;;;5040890;28;20035;-67
2022/08/10 11:27:32;;;;;;;12.13;3.92;;;;;;;;;;5045211;28;20025;-67
2022/08/10 11:30:01;;;;;;;8.65;3.65;;;;;;;;;;5036673;28;20037;-67
2022/08/10 11:32:50;;;;;;;10.43;3.67;;;;;;;;;;5042440;28;20087;-67
2022/08/10 11:35:35;;;;;;;9.35;3.55;;;;;;;;;;5042442;28;20018;-67
2022/08/10 11:38:13;;;;;;;14.98;4.28;;;;;;;;;;5038619;28;20370;-66
2022/08/10 11:40:58;;;;;;;11.40;3.65;;;;;;;;;;5037028;28;20076;-67
2022/08/10 11:43:28;;;;;;;9.32;3.80;;;;;;;;;;5037467;28;20024;-67
2022/08/10 11:46:23;;;;;;;11.07;3.80;;;;;;;;;;5033289;28;20029;-67
2022/08/10 11:49:01;;;;;;;13.25;4.45;;;;;;;;;;5020900;28;20040;-67
2022/08/10 11:51:48;;;;;;;13.38;3.85;;;;;;;;;;5040020;28;20133;-67
2022/08/10 11:54:21;;;;;;;16.65;3.75;;;;;;;;;;5042943;28;20021;-67
2022/08/10 11:56:49;;;;;;;16.88;4.10;;;;;;;;;;5045999;28;20033;-67
2022/08/10 12:02:02;;;;;;;10.15;3.72;;;;;;;;;;5041993;28;21857;-67
2022/08/10 12:04:28;;;;;;;10.35;3.40;;;;;;;;;;5042353;28;20074;-66
2022/08/10 12:06:55;;;;;;;9.10;3.53;;;;;;;;;;5046790;28;20045;-67
2022/08/10 12:09:22;;;;;;;9.10;4.07;;;;;;;;;;5034603;28;20025;-67
2022/08/10 12:11:49;;;;;;;15.98;3.55;;;;;;;;;;5040968;28;20030;-67
2022/08/10 12:14:21;;;;;;;12.32;3.42;;;;;;;;;;5039156;28;20103;-67
2022/08/10 12:16:49;;;;;;;12.32;3.60;;;;;;;;;;5041072;28;20043;-67
2022/08/10 12:19:22;;;;;;;12.25;4.20;;;;;;;;;;5040086;28;20472;-67
2022/08/10 12:22:00;;;;;;;17.45;4.80;;;;;;;;;;5040179;28;20153;-67
2022/08/10 12:24:45;;;;;;;11.60;3.90;;;;;;;;;;5035199;28;20029;-67
2022/08/10 12:27:13;;;;;;;11.82;4.45;;;;;;;;;;5045725;28;21031;-67
2022/08/10 12:29:49;;;;;;;11.75;3.35;;;;;;;;;;5038257;28;20293;-67
2022/08/10 12:32:21;;;;;;;10.23;3.60;;;;;;;;;;5043705;28;20029;-67
2022/08/10 12:34:50;;;;;;;10.05;3.55;;;;;;;;;;5043261;28;20028;-66
2022/08/10 12:37:21;;;;;;;11.15;3.28;;;;;;;;;;5037407;28;20032;-67
2022/08/10 12:40:05;;;;;;;16.20;3.90;;;;;;;;;;5041091;28;20032;-67
2022/08/10 12:42:51;;;;;;;9.68;4.07;;;;;;;;;;5040074;28;20041;-66
2022/08/10 12:45:34;;;;;;;14.25;4.25;;;;;;;;;;5032362;28;20061;-66
2022/08/10 12:48:04;;;;;;;13.75;4.55;;;;;;;;;;5038173;28;20078;-66
2022/08/10 12:50:37;;;;;;;17.33;4.95;;;;;;;;;;5043658;28;20358;-66
2022/08/10 12:53:24;;;;;;;13.68;4.57;;;;;;;;;;5041690;28;20021;-66
2022/08/10 12:55:51;;;;;;;15.88;4.47;;;;;;;;;;5005599;28;20172;-66
2022/08/10 12:58:19;;;;;;;13.57;4.20;;;;;;;;;;5008549;28;20034;-66
2022/08/10 13:00:45;;;;;;;11.57;4.47;;;;;;;;;;5004976;28;20564;-66
2022/08/10 13:03:12;;;;;;;15.18;4.10;;;;;;;;;;5003615;28;20434;-67
2022/08/10 13:05:39;;;;;;;16.10;4.97;;;;;;;;;;5004363;28;20077;-67
2022/08/10 13:11:11;;;;;;;17.80;4.55;;;;;;;;;;5008654;28;20033;-66
2022/08/10 13:13:39;;;;;;;19.40;5.03;;;;;;;;;;5007159;28;20079;-66
2022/08/10 13:16:05;;;;;;;17.15;4.93;;;;;;;;;;5004732;28;20034;-66
2022/08/10 13:18:37;;;;;;;16.02;4.32;;;;;;;;;;5007442;28;20060;-66
2022/08/10 13:21:08;;;;;;;19.50;4.45;;;;;;;;;;5009281;28;20037;-66
2022/08/10 13:23:37;;;;;;;14.93;5.20;;;;;;;;;;5005379;28;20045;-66
2022/08/10 13:26:05;;;;;;;19.30;4.85;;;;;;;;;;4987746;28;21775;-66
2022/08/10 13:28:52;;;;;;;19.55;5.28;;;;;;;;;;4999789;28;20033;-66
2022/08/10 13:31:19;;;;;;;11.60;4.03;;;;;;;;;;5003480;28;20142;-66
2022/08/10 13:33:48;;;;;;;15.30;4.30;;;;;;;;;;5043306;28;20032;-66
2022/08/10 13:36:15;;;;;;;17.75;5.13;;;;;;;;;;5039970;28;20036;-66
2022/08/10 13:38:44;;;;;;;15.68;4.45;;;;;;;;;;5044971;28;20051;-66
2022/08/10 13:41:10;;;;;;;13.70;4.65;;;;;;;;;;5053176;28;20035;-66
2022/08/10 13:43:37;;;;;;;25.35;4.60;;;;;;;;;;5047980;28;20065;-66
2022/08/10 13:46:06;;;;;;;15.52;4.22;;;;;;;;;;5052261;28;20040;-66
2022/08/10 13:48:34;;;;;;;24.02;3.72;;;;;;;;;;5054886;28;20101;-66
2022/08/10 13:51:02;;;;;;;22.65;4.90;;;;;;;;;;5050007;28;20024;-66
2022/08/10 13:53:30;;;;;;;15.40;4.40;;;;;;;;;;5047840;28;20017;-66
2022/08/10 13:55:57;;;;;;;13.93;4.15;;;;;;;;;;5050098;28;20021;-66
2022/08/10 13:58:31;;;;;;;17.58;4.38;;;;;;;;;;5042726;28;21433;-66
2022/08/10 14:00:58;;;;;;;16.77;3.70;;;;;;;;;;5049006;28;20029;-66
2022/08/10 14:03:25;;;;;;;16.27;4.68;;;;;;;;;;5046969;28;20028;-66
2022/08/10 14:05:53;;;;;;;23.58;4.72;;;;;;;;;;5044638;28;20041;-66
2022/08/10 14:08:22;;;;;;;17.75;4.30;;;;;;;;;;5042262;28;20029;-67
2022/08/10 14:10:50;;;;;;;25.85;5.15;;;;;;;;;;5051816;28;20061;-67
2022/08/10 14:13:18;;;;;;;15.40;4.22;;;;;;;;;;5058009;28;20071;-68
2022/08/10 14:15:46;;;;;;;19.30;5.03;;;;;;;;;;5055032;28;20033;-67
2022/08/10 14:18:13;;;;;;;19.02;4.65;;;;;;;;;;5049601;28;20044;-67
2022/08/10 14:20:40;;;;;;;14.20;4.35;;;;;;;;;;5064508;28;20029;-67
2022/08/10 14:23:07;;;;;;;16.75;4.38;;;;;;;;;;5049332;28;20125;-67
2022/08/10 14:25:44;;;;;;;16.65;3.88;;;;;;;;;;5037269;28;20030;-67
2022/08/10 14:28:11;;;;;;;13.07;4.13;;;;;;;;;;5049557;28;20483;-67
2022/08/10 14:30:38;;;;;;;9.30;4.13;;;;;;;;;;5050617;28;20071;-67
2022/08/10 14:33:05;;;;;;;18.52;4.53;;;;;;;;;;5052640;28;20031;-67
2022/08/10 14:35:35;;;;;;;16.73;4.60;;;;;;;;;;5057418;28;20078;-67
2022/08/10 14:38:07;;;;;;;13.05;4.15;;;;;;;;;;5043956;28;20029;-67
2022/08/10 14:40:36;;;;;;;13.90;3.60;;;;;;;;;;5050767;28;20036;-67
2022/08/10 14:43:08;;;;;;;16.70;3.90;;;;;;;;;;5051540;28;20554;-67
2022/08/10 14:45:36;;;;;;;11.65;4.30;;;;;;;;;;5052298;28;20025;-67
2022/08/10 14:48:07;;;;;;;15.35;4.13;;;;;;;;;;5052209;28;20024;-68
2022/08/10 14:50:34;;;;;;;19.40;4.35;;;;;;;;;;5049943;28;20029;-69
2022/08/10 14:53:16;;;;;;;19.83;3.40;;;;;;;;;;5049896;28;20020;-68
2022/08/10 14:56:03;;;;;;;13.65;4.22;;;;;;;;;;5045022;28;20029;-67
2022/08/10 14:58:30;;;;;;;15.85;4.78;;;;;;;;;;5067356;28;20028;-67